sensor_id;sensor_type;location;lat;lon;timestamp;P1;durP1;ratioP1;P2;durP2;ratioP2
5585;SDS011;2815;54.094;12.112;2022-07-01T00:01:00;19.63;;;12.82;;
5585;SDS011;2815;54.094;12.112;2022-07-01T00:03:28;21.85;;;13.77;;
5585;SDS011;2815;54.094;12.112;2022-07-01T00:05:57;19.80;;;13.27;;
5585;SDS011;2815;54.094;12.112;2022-07-01T00:08:25;22.48;;;13.77;;
5585;SDS011;2815;54.094;12.112;2022-07-01T00:10:53;20.08;;;13.10;;
5585;SDS011;2815;54.094;12.112;2022-07-01T00:13:21;19.35;;;13.93;;
5585;SDS011;2815;54.094;12.112;2022-07-01T00:15:50;20.15;;;13.63;;
5585;SDS011;2815;54.094;12.112;2022-07-01T00:18:18;23.23;;;14.18;;
5585;SDS011;2815;54.094;12.112;2022-07-01T00:20:47;22.17;;;15.02;;
5585;SDS011;2815;54.094;12.112;2022-07-01T00:23:17;28.33;;;16.27;;
5585;SDS011;2815;54.094;12.112;2022-07-01T00:25:45;24.80;;;15.48;;
5585;SDS011;2815;54.094;12.112;2022-07-01T00:28:13;27.02;;;15.13;;
5585;SDS011;2815;54.094;12.112;2022-07-01T00:30:41;29.42;;;14.27;;
5585;SDS011;2815;54.094;12.112;2022-07-01T00:33:10;24.58;;;14.32;;
5585;SDS011;2815;54.094;12.112;2022-07-01T00:35:38;26.00;;;15.40;;
5585;SDS011;2815;54.094;12.112;2022-07-01T00:38:06;25.10;;;15.65;;
5585;SDS011;2815;54.094;12.112;2022-07-01T00:40:34;29.55;;;15.93;;
5585;SDS011;2815;54.094;12.112;2022-07-01T00:43:02;24.05;;;15.20;;
5585;SDS011;2815;54.094;12.112;2022-07-01T00:45:31;23.13;;;15.50;;
5585;SDS011;2815;54.094;12.112;2022-07-01T00:47:59;29.77;;;16.17;;
5585;SDS011;2815;54.094;12.112;2022-07-01T00:50:28;26.23;;;15.15;;
5585;SDS011;2815;54.094;12.112;2022-07-01T00:52:56;26.73;;;15.65;;
5585;SDS011;2815;54.094;12.112;2022-07-01T00:55:24;25.92;;;15.27;;
5585;SDS011;2815;54.094;12.112;2022-07-01T00:57:52;24.70;;;14.98;;
5585;SDS011;2815;54.094;12.112;2022-07-01T01:00:20;25.10;;;15.73;;
5585;SDS011;2815;54.094;12.112;2022-07-01T01:02:48;28.65;;;15.68;;
5585;SDS011;2815;54.094;12.112;2022-07-01T01:05:16;26.20;;;15.70;;
5585;SDS011;2815;54.094;12.112;2022-07-01T01:07:48;29.73;;;15.85;;
5585;SDS011;2815;54.094;12.112;2022-07-01T01:10:17;29.17;;;15.95;;
5585;SDS011;2815;54.094;12.112;2022-07-01T01:12:45;31.08;;;15.70;;
5585;SDS011;2815;54.094;12.112;2022-07-01T01:19:16;26.08;;;14.95;;
5585;SDS011;2815;54.094;12.112;2022-07-01T01:21:45;26.90;;;15.40;;
5585;SDS011;2815;54.094;12.112;2022-07-01T01:24:13;26.48;;;15.05;;
5585;SDS011;2815;54.094;12.112;2022-07-01T01:26:41;26.55;;;16.25;;
5585;SDS011;2815;54.094;12.112;2022-07-01T01:29:09;27.70;;;15.90;;
5585;SDS011;2815;54.094;12.112;2022-07-01T01:31:37;26.38;;;15.70;;
5585;SDS011;2815;54.094;12.112;2022-07-01T01:34:05;26.58;;;15.70;;
5585;SDS011;2815;54.094;12.112;2022-07-01T01:36:32;31.30;;;15.13;;
5585;SDS011;2815;54.094;12.112;2022-07-01T01:39:02;26.08;;;15.15;;
5585;SDS011;2815;54.094;12.112;2022-07-01T01:44:01;28.92;;;15.02;;
5585;SDS011;2815;54.094;12.112;2022-07-01T01:46:29;25.15;;;14.13;;
5585;SDS011;2815;54.094;12.112;2022-07-01T01:48:57;29.73;;;16.00;;
5585;SDS011;2815;54.094;12.112;2022-07-01T01:51:25;26.10;;;15.68;;
5585;SDS011;2815;54.094;12.112;2022-07-01T01:53:53;30.50;;;16.45;;
5585;SDS011;2815;54.094;12.112;2022-07-01T01:56:23;34.50;;;17.55;;
5585;SDS011;2815;54.094;12.112;2022-07-01T01:58:52;28.33;;;15.57;;
5585;SDS011;2815;54.094;12.112;2022-07-01T02:01:20;29.00;;;16.63;;
5585;SDS011;2815;54.094;12.112;2022-07-01T02:03:48;29.02;;;16.65;;
5585;SDS011;2815;54.094;12.112;2022-07-01T02:06:18;26.90;;;15.85;;
5585;SDS011;2815;54.094;12.112;2022-07-01T02:08:47;27.88;;;16.55;;
5585;SDS011;2815;54.094;12.112;2022-07-01T02:11:16;29.95;;;16.80;;
5585;SDS011;2815;54.094;12.112;2022-07-01T02:13:45;31.48;;;17.05;;
5585;SDS011;2815;54.094;12.112;2022-07-01T02:16:13;31.88;;;17.38;;
5585;SDS011;2815;54.094;12.112;2022-07-01T02:18:42;32.55;;;15.98;;
5585;SDS011;2815;54.094;12.112;2022-07-01T02:21:10;31.75;;;17.33;;
5585;SDS011;2815;54.094;12.112;2022-07-01T02:23:38;29.63;;;16.92;;
5585;SDS011;2815;54.094;12.112;2022-07-01T02:26:05;38.63;;;17.88;;
5585;SDS011;2815;54.094;12.112;2022-07-01T02:28:33;28.92;;;15.52;;
5585;SDS011;2815;54.094;12.112;2022-07-01T02:31:03;28.42;;;16.65;;
5585;SDS011;2815;54.094;12.112;2022-07-01T02:33:31;31.10;;;16.63;;
5585;SDS011;2815;54.094;12.112;2022-07-01T02:35:59;30.27;;;16.92;;
5585;SDS011;2815;54.094;12.112;2022-07-01T02:38:27;31.10;;;16.35;;
5585;SDS011;2815;54.094;12.112;2022-07-01T02:40:54;28.42;;;15.52;;
5585;SDS011;2815;54.094;12.112;2022-07-01T02:43:22;30.20;;;15.73;;
5585;SDS011;2815;54.094;12.112;2022-07-01T02:45:50;32.88;;;16.23;;
5585;SDS011;2815;54.094;12.112;2022-07-01T02:48:20;31.02;;;15.35;;
5585;SDS011;2815;54.094;12.112;2022-07-01T02:50:47;32.33;;;15.45;;
5585;SDS011;2815;54.094;12.112;2022-07-01T02:53:16;32.63;;;16.83;;
5585;SDS011;2815;54.094;12.112;2022-07-01T02:55:44;28.85;;;15.27;;
5585;SDS011;2815;54.094;12.112;2022-07-01T02:58:11;31.77;;;16.67;;
5585;SDS011;2815;54.094;12.112;2022-07-01T03:00:40;27.83;;;14.93;;
5585;SDS011;2815;54.094;12.112;2022-07-01T03:03:08;35.88;;;16.42;;
5585;SDS011;2815;54.094;12.112;2022-07-01T03:05:37;32.03;;;16.65;;
5585;SDS011;2815;54.094;12.112;2022-07-01T03:08:05;32.38;;;17.55;;
5585;SDS011;2815;54.094;12.112;2022-07-01T03:10:33;35.60;;;16.08;;
5585;SDS011;2815;54.094;12.112;2022-07-01T03:13:01;29.70;;;16.23;;
5585;SDS011;2815;54.094;12.112;2022-07-01T03:15:29;30.65;;;16.48;;
5585;SDS011;2815;54.094;12.112;2022-07-01T03:17:57;33.60;;;16.65;;
5585;SDS011;2815;54.094;12.112;2022-07-01T03:20:25;35.45;;;16.05;;
5585;SDS011;2815;54.094;12.112;2022-07-01T03:22:54;32.63;;;16.58;;
5585;SDS011;2815;54.094;12.112;2022-07-01T03:25:22;33.15;;;16.02;;
5585;SDS011;2815;54.094;12.112;2022-07-01T03:27:50;33.58;;;16.23;;
5585;SDS011;2815;54.094;12.112;2022-07-01T03:30:18;32.28;;;16.83;;
5585;SDS011;2815;54.094;12.112;2022-07-01T03:32:46;33.20;;;16.77;;
5585;SDS011;2815;54.094;12.112;2022-07-01T03:35:14;29.98;;;16.02;;
5585;SDS011;2815;54.094;12.112;2022-07-01T03:38:02;30.40;;;15.63;;
5585;SDS011;2815;54.094;12.112;2022-07-01T03:40:30;35.83;;;16.95;;
5585;SDS011;2815;54.094;12.112;2022-07-01T03:42:58;32.78;;;16.70;;
5585;SDS011;2815;54.094;12.112;2022-07-01T03:45:26;34.28;;;16.67;;
5585;SDS011;2815;54.094;12.112;2022-07-01T03:47:54;32.08;;;16.40;;
5585;SDS011;2815;54.094;12.112;2022-07-01T03:50:23;36.67;;;16.70;;
5585;SDS011;2815;54.094;12.112;2022-07-01T03:52:52;32.80;;;15.93;;
5585;SDS011;2815;54.094;12.112;2022-07-01T03:55:35;35.95;;;16.70;;
5585;SDS011;2815;54.094;12.112;2022-07-01T03:58:04;34.47;;;16.02;;
5585;SDS011;2815;54.094;12.112;2022-07-01T04:00:33;32.00;;;16.70;;
5585;SDS011;2815;54.094;12.112;2022-07-01T04:03:02;35.47;;;16.02;;
5585;SDS011;2815;54.094;12.112;2022-07-01T04:05:31;31.73;;;16.15;;
5585;SDS011;2815;54.094;12.112;2022-07-01T04:07:59;31.30;;;15.80;;
5585;SDS011;2815;54.094;12.112;2022-07-01T04:10:29;38.47;;;17.90;;
5585;SDS011;2815;54.094;12.112;2022-07-01T04:12:58;34.58;;;17.05;;
5585;SDS011;2815;54.094;12.112;2022-07-01T04:15:46;35.88;;;17.85;;
5585;SDS011;2815;54.094;12.112;2022-07-01T04:18:14;33.05;;;18.23;;
5585;SDS011;2815;54.094;12.112;2022-07-01T04:20:42;40.75;;;17.65;;
5585;SDS011;2815;54.094;12.112;2022-07-01T04:23:30;42.47;;;17.40;;
5585;SDS011;2815;54.094;12.112;2022-07-01T04:26:00;42.70;;;17.90;;
5585;SDS011;2815;54.094;12.112;2022-07-01T04:28:49;42.00;;;17.45;;
5585;SDS011;2815;54.094;12.112;2022-07-01T04:31:17;33.97;;;16.27;;
5585;SDS011;2815;54.094;12.112;2022-07-01T04:33:46;33.30;;;16.98;;
5585;SDS011;2815;54.094;12.112;2022-07-01T04:36:14;30.38;;;16.95;;
5585;SDS011;2815;54.094;12.112;2022-07-01T04:38:42;29.83;;;16.17;;
5585;SDS011;2815;54.094;12.112;2022-07-01T04:41:10;28.77;;;16.75;;
5585;SDS011;2815;54.094;12.112;2022-07-01T04:43:57;32.10;;;16.85;;
5585;SDS011;2815;54.094;12.112;2022-07-01T04:46:25;28.98;;;17.08;;
5585;SDS011;2815;54.094;12.112;2022-07-01T04:48:53;34.55;;;17.05;;
5585;SDS011;2815;54.094;12.112;2022-07-01T04:51:21;28.83;;;16.33;;
5585;SDS011;2815;54.094;12.112;2022-07-01T04:53:50;35.20;;;17.17;;
5585;SDS011;2815;54.094;12.112;2022-07-01T04:56:18;32.95;;;17.42;;
5585;SDS011;2815;54.094;12.112;2022-07-01T04:58:46;31.80;;;17.50;;
5585;SDS011;2815;54.094;12.112;2022-07-01T05:01:15;31.17;;;17.10;;
5585;SDS011;2815;54.094;12.112;2022-07-01T05:03:43;31.83;;;17.52;;
5585;SDS011;2815;54.094;12.112;2022-07-01T05:06:12;34.15;;;18.13;;
5585;SDS011;2815;54.094;12.112;2022-07-01T05:08:39;35.25;;;17.65;;
5585;SDS011;2815;54.094;12.112;2022-07-01T05:11:07;33.63;;;17.67;;
5585;SDS011;2815;54.094;12.112;2022-07-01T05:13:35;31.67;;;17.25;;
5585;SDS011;2815;54.094;12.112;2022-07-01T05:16:04;30.00;;;16.38;;
5585;SDS011;2815;54.094;12.112;2022-07-01T05:18:36;34.25;;;18.00;;
5585;SDS011;2815;54.094;12.112;2022-07-01T05:21:22;33.30;;;15.93;;
5585;SDS011;2815;54.094;12.112;2022-07-01T05:24:08;32.17;;;17.27;;
5585;SDS011;2815;54.094;12.112;2022-07-01T05:26:36;32.78;;;17.60;;
5585;SDS011;2815;54.094;12.112;2022-07-01T05:29:04;32.45;;;17.25;;
5585;SDS011;2815;54.094;12.112;2022-07-01T05:31:32;36.25;;;17.88;;
5585;SDS011;2815;54.094;12.112;2022-07-01T05:34:02;32.47;;;17.73;;
5585;SDS011;2815;54.094;12.112;2022-07-01T05:36:31;32.63;;;17.10;;
5585;SDS011;2815;54.094;12.112;2022-07-01T05:38:59;36.13;;;17.65;;
5585;SDS011;2815;54.094;12.112;2022-07-01T05:41:29;30.80;;;17.17;;
5585;SDS011;2815;54.094;12.112;2022-07-01T05:43:57;35.17;;;17.17;;
5585;SDS011;2815;54.094;12.112;2022-07-01T05:46:25;33.47;;;16.17;;
5585;SDS011;2815;54.094;12.112;2022-07-01T05:48:53;30.00;;;16.08;;
5585;SDS011;2815;54.094;12.112;2022-07-01T05:51:23;30.15;;;15.48;;
5585;SDS011;2815;54.094;12.112;2022-07-01T05:53:51;27.73;;;14.80;;
5585;SDS011;2815;54.094;12.112;2022-07-01T05:56:19;34.75;;;15.90;;
5585;SDS011;2815;54.094;12.112;2022-07-01T05:58:47;29.58;;;14.93;;
5585;SDS011;2815;54.094;12.112;2022-07-01T06:01:15;25.92;;;14.93;;
5585;SDS011;2815;54.094;12.112;2022-07-01T06:03:43;25.10;;;14.73;;
5585;SDS011;2815;54.094;12.112;2022-07-01T06:06:11;28.08;;;13.98;;
5585;SDS011;2815;54.094;12.112;2022-07-01T06:08:41;28.08;;;14.20;;
5585;SDS011;2815;54.094;12.112;2022-07-01T06:11:09;25.27;;;14.40;;
5585;SDS011;2815;54.094;12.112;2022-07-01T06:13:37;31.10;;;16.35;;
5585;SDS011;2815;54.094;12.112;2022-07-01T06:16:05;28.75;;;14.23;;
5585;SDS011;2815;54.094;12.112;2022-07-01T06:18:33;24.45;;;14.52;;
5585;SDS011;2815;54.094;12.112;2022-07-01T06:21:04;23.50;;;13.52;;
5585;SDS011;2815;54.094;12.112;2022-07-01T06:23:32;22.52;;;12.88;;
5585;SDS011;2815;54.094;12.112;2022-07-01T06:26:01;21.27;;;12.63;;
5585;SDS011;2815;54.094;12.112;2022-07-01T06:28:29;17.95;;;11.23;;
5585;SDS011;2815;54.094;12.112;2022-07-01T06:30:57;19.13;;;11.95;;
5585;SDS011;2815;54.094;12.112;2022-07-01T06:33:25;21.42;;;12.13;;
5585;SDS011;2815;54.094;12.112;2022-07-01T06:35:56;21.20;;;11.48;;
5585;SDS011;2815;54.094;12.112;2022-07-01T06:38:24;20.08;;;11.40;;
5585;SDS011;2815;54.094;12.112;2022-07-01T06:40:52;18.83;;;11.25;;
5585;SDS011;2815;54.094;12.112;2022-07-01T06:43:39;20.17;;;11.77;;
5585;SDS011;2815;54.094;12.112;2022-07-01T06:46:07;21.73;;;11.13;;
5585;SDS011;2815;54.094;12.112;2022-07-01T06:48:34;21.00;;;12.20;;
5585;SDS011;2815;54.094;12.112;2022-07-01T06:51:03;18.77;;;11.75;;
5585;SDS011;2815;54.094;12.112;2022-07-01T06:53:31;17.83;;;11.18;;
5585;SDS011;2815;54.094;12.112;2022-07-01T06:55:58;17.85;;;10.98;;
5585;SDS011;2815;54.094;12.112;2022-07-01T06:58:28;18.95;;;11.65;;
5585;SDS011;2815;54.094;12.112;2022-07-01T07:00:59;18.83;;;11.60;;
5585;SDS011;2815;54.094;12.112;2022-07-01T07:03:27;20.85;;;11.75;;
5585;SDS011;2815;54.094;12.112;2022-07-01T07:05:55;18.63;;;12.15;;
5585;SDS011;2815;54.094;12.112;2022-07-01T07:08:23;20.42;;;12.00;;
5585;SDS011;2815;54.094;12.112;2022-07-01T07:10:51;19.50;;;11.80;;
5585;SDS011;2815;54.094;12.112;2022-07-01T07:13:20;19.42;;;11.93;;
5585;SDS011;2815;54.094;12.112;2022-07-01T07:15:55;21.92;;;12.50;;
5585;SDS011;2815;54.094;12.112;2022-07-01T07:18:25;20.67;;;12.77;;
5585;SDS011;2815;54.094;12.112;2022-07-01T07:20:53;24.45;;;13.88;;
5585;SDS011;2815;54.094;12.112;2022-07-01T07:23:26;22.85;;;13.85;;
5585;SDS011;2815;54.094;12.112;2022-07-01T07:25:54;24.63;;;14.20;;
5585;SDS011;2815;54.094;12.112;2022-07-01T07:28:23;18.25;;;9.90;;
5585;SDS011;2815;54.094;12.112;2022-07-01T07:30:51;26.27;;;9.45;;
5585;SDS011;2815;54.094;12.112;2022-07-01T07:33:19;14.75;;;5.93;;
5585;SDS011;2815;54.094;12.112;2022-07-01T07:35:49;12.05;;;5.60;;
5585;SDS011;2815;54.094;12.112;2022-07-01T07:38:17;14.43;;;6.25;;
5585;SDS011;2815;54.094;12.112;2022-07-01T07:40:45;12.27;;;5.00;;
5585;SDS011;2815;54.094;12.112;2022-07-01T07:43:13;17.30;;;6.50;;
5585;SDS011;2815;54.094;12.112;2022-07-01T07:45:41;12.52;;;5.60;;
5585;SDS011;2815;54.094;12.112;2022-07-01T07:48:10;23.00;;;6.93;;
5585;SDS011;2815;54.094;12.112;2022-07-01T07:50:38;23.92;;;7.35;;
5585;SDS011;2815;54.094;12.112;2022-07-01T07:53:08;14.40;;;6.70;;
5585;SDS011;2815;54.094;12.112;2022-07-01T07:55:38;15.17;;;6.43;;
5585;SDS011;2815;54.094;12.112;2022-07-01T07:58:07;17.35;;;6.40;;
5585;SDS011;2815;54.094;12.112;2022-07-01T08:00:35;11.70;;;6.68;;
5585;SDS011;2815;54.094;12.112;2022-07-01T08:03:06;11.32;;;6.10;;
5585;SDS011;2815;54.094;12.112;2022-07-01T08:05:34;11.48;;;6.57;;
5585;SDS011;2815;54.094;12.112;2022-07-01T08:08:02;14.10;;;6.75;;
5585;SDS011;2815;54.094;12.112;2022-07-01T08:10:32;15.85;;;6.93;;
5585;SDS011;2815;54.094;12.112;2022-07-01T08:13:00;13.50;;;6.57;;
5585;SDS011;2815;54.094;12.112;2022-07-01T08:15:31;16.52;;;8.18;;
5585;SDS011;2815;54.094;12.112;2022-07-01T08:17:59;13.93;;;7.07;;
5585;SDS011;2815;54.094;12.112;2022-07-01T08:20:27;13.05;;;7.07;;
5585;SDS011;2815;54.094;12.112;2022-07-01T08:22:55;14.57;;;7.32;;
5585;SDS011;2815;54.094;12.112;2022-07-01T08:25:23;12.60;;;7.45;;
5585;SDS011;2815;54.094;12.112;2022-07-01T08:27:52;14.30;;;8.13;;
5585;SDS011;2815;54.094;12.112;2022-07-01T08:30:20;13.00;;;8.15;;
5585;SDS011;2815;54.094;12.112;2022-07-01T08:32:48;16.80;;;7.55;;
5585;SDS011;2815;54.094;12.112;2022-07-01T08:35:16;11.82;;;7.10;;
5585;SDS011;2815;54.094;12.112;2022-07-01T08:37:44;14.50;;;7.25;;
5585;SDS011;2815;54.094;12.112;2022-07-01T08:40:12;13.13;;;7.70;;
5585;SDS011;2815;54.094;12.112;2022-07-01T08:42:40;16.42;;;10.05;;
5585;SDS011;2815;54.094;12.112;2022-07-01T08:45:10;14.25;;;6.40;;
5585;SDS011;2815;54.094;12.112;2022-07-01T08:47:49;11.30;;;6.65;;
5585;SDS011;2815;54.094;12.112;2022-07-01T08:50:18;15.15;;;7.18;;
5585;SDS011;2815;54.094;12.112;2022-07-01T08:52:49;11.68;;;5.90;;
5585;SDS011;2815;54.094;12.112;2022-07-01T08:55:17;9.18;;;5.05;;
5585;SDS011;2815;54.094;12.112;2022-07-01T08:57:45;9.02;;;5.18;;
5585;SDS011;2815;54.094;12.112;2022-07-01T09:00:16;12.70;;;5.43;;
5585;SDS011;2815;54.094;12.112;2022-07-01T09:02:52;10.98;;;5.85;;
5585;SDS011;2815;54.094;12.112;2022-07-01T09:05:22;9.82;;;5.47;;
5585;SDS011;2815;54.094;12.112;2022-07-01T09:07:54;10.57;;;5.63;;
5585;SDS011;2815;54.094;12.112;2022-07-01T09:12:51;11.10;;;5.03;;
5585;SDS011;2815;54.094;12.112;2022-07-01T09:15:21;10.20;;;5.85;;
5585;SDS011;2815;54.094;12.112;2022-07-01T09:17:53;7.78;;;5.00;;
5585;SDS011;2815;54.094;12.112;2022-07-01T09:20:26;7.05;;;4.80;;
5585;SDS011;2815;54.094;12.112;2022-07-01T09:23:02;7.80;;;4.50;;
5585;SDS011;2815;54.094;12.112;2022-07-01T09:25:34;5.55;;;4.00;;
5585;SDS011;2815;54.094;12.112;2022-07-01T09:28:12;6.95;;;3.80;;
5585;SDS011;2815;54.094;12.112;2022-07-01T09:30:45;6.15;;;3.97;;
5585;SDS011;2815;54.094;12.112;2022-07-01T09:33:16;5.90;;;4.00;;
5585;SDS011;2815;54.094;12.112;2022-07-01T09:35:45;9.93;;;3.88;;
5585;SDS011;2815;54.094;12.112;2022-07-01T09:38:16;8.50;;;3.85;;
5585;SDS011;2815;54.094;12.112;2022-07-01T09:40:58;5.60;;;3.80;;
5585;SDS011;2815;54.094;12.112;2022-07-01T09:43:28;7.15;;;4.20;;
5585;SDS011;2815;54.094;12.112;2022-07-01T09:45:58;6.93;;;4.22;;
5585;SDS011;2815;54.094;12.112;2022-07-01T09:48:43;6.00;;;3.80;;
5585;SDS011;2815;54.094;12.112;2022-07-01T09:51:12;8.43;;;3.95;;
5585;SDS011;2815;54.094;12.112;2022-07-01T09:53:43;7.22;;;4.18;;
5585;SDS011;2815;54.094;12.112;2022-07-01T09:56:11;7.13;;;4.13;;
5585;SDS011;2815;54.094;12.112;2022-07-01T09:58:39;7.05;;;4.50;;
5585;SDS011;2815;54.094;12.112;2022-07-01T10:01:11;8.27;;;4.30;;
5585;SDS011;2815;54.094;12.112;2022-07-01T10:03:41;8.38;;;5.30;;
5585;SDS011;2815;54.094;12.112;2022-07-01T10:09:16;8.63;;;5.40;;
5585;SDS011;2815;54.094;12.112;2022-07-01T10:12:00;10.38;;;5.95;;
5585;SDS011;2815;54.094;12.112;2022-07-01T10:14:37;10.45;;;7.10;;
5585;SDS011;2815;54.094;12.112;2022-07-01T10:17:07;8.20;;;6.50;;
5585;SDS011;2815;54.094;12.112;2022-07-01T10:19:36;9.52;;;6.75;;
5585;SDS011;2815;54.094;12.112;2022-07-01T10:24:52;8.75;;;6.35;;
5585;SDS011;2815;54.094;12.112;2022-07-01T10:27:21;11.30;;;6.55;;
5585;SDS011;2815;54.094;12.112;2022-07-01T10:30:00;8.65;;;6.43;;
5585;SDS011;2815;54.094;12.112;2022-07-01T10:32:44;10.13;;;6.30;;
5585;SDS011;2815;54.094;12.112;2022-07-01T10:35:35;8.95;;;5.35;;
5585;SDS011;2815;54.094;12.112;2022-07-01T10:38:04;10.20;;;5.65;;
5585;SDS011;2815;54.094;12.112;2022-07-01T10:40:42;10.65;;;6.18;;
5585;SDS011;2815;54.094;12.112;2022-07-01T10:43:14;11.82;;;6.40;;
5585;SDS011;2815;54.094;12.112;2022-07-01T10:45:50;14.98;;;7.60;;
5585;SDS011;2815;54.094;12.112;2022-07-01T10:48:20;11.15;;;4.97;;
5585;SDS011;2815;54.094;12.112;2022-07-01T10:50:49;8.43;;;4.00;;
5585;SDS011;2815;54.094;12.112;2022-07-01T10:53:18;10.90;;;3.70;;
5585;SDS011;2815;54.094;12.112;2022-07-01T10:55:47;8.00;;;3.08;;
5585;SDS011;2815;54.094;12.112;2022-07-01T10:58:35;9.38;;;3.72;;
5585;SDS011;2815;54.094;12.112;2022-07-01T11:01:03;12.73;;;3.97;;
5585;SDS011;2815;54.094;12.112;2022-07-01T11:03:35;8.18;;;2.85;;
5585;SDS011;2815;54.094;12.112;2022-07-01T11:06:06;10.18;;;3.40;;
5585;SDS011;2815;54.094;12.112;2022-07-01T11:08:34;7.32;;;3.28;;
5585;SDS011;2815;54.094;12.112;2022-07-01T11:11:02;6.60;;;3.50;;
5585;SDS011;2815;54.094;12.112;2022-07-01T11:13:32;9.38;;;2.85;;
5585;SDS011;2815;54.094;12.112;2022-07-01T11:16:00;9.02;;;3.25;;
5585;SDS011;2815;54.094;12.112;2022-07-01T11:18:29;4.25;;;2.53;;
5585;SDS011;2815;54.094;12.112;2022-07-01T11:21:08;10.35;;;3.90;;
5585;SDS011;2815;54.094;12.112;2022-07-01T11:23:37;9.35;;;3.22;;
5585;SDS011;2815;54.094;12.112;2022-07-01T11:26:07;10.15;;;3.13;;
5585;SDS011;2815;54.094;12.112;2022-07-01T11:28:47;8.63;;;2.67;;
5585;SDS011;2815;54.094;12.112;2022-07-01T11:31:25;8.88;;;2.00;;
5585;SDS011;2815;54.094;12.112;2022-07-01T11:33:54;6.57;;;2.17;;
5585;SDS011;2815;54.094;12.112;2022-07-01T11:36:24;7.60;;;2.70;;
5585;SDS011;2815;54.094;12.112;2022-07-01T11:39:09;7.90;;;3.25;;
5585;SDS011;2815;54.094;12.112;2022-07-01T11:41:54;8.20;;;2.55;;
5585;SDS011;2815;54.094;12.112;2022-07-01T11:44:30;5.85;;;2.40;;
5585;SDS011;2815;54.094;12.112;2022-07-01T11:46:59;10.35;;;2.70;;
5585;SDS011;2815;54.094;12.112;2022-07-01T11:49:27;5.97;;;2.70;;
5585;SDS011;2815;54.094;12.112;2022-07-01T11:51:57;3.88;;;2.10;;
5585;SDS011;2815;54.094;12.112;2022-07-01T11:54:27;7.00;;;2.33;;
5585;SDS011;2815;54.094;12.112;2022-07-01T11:57:06;2.78;;;1.77;;
5585;SDS011;2815;54.094;12.112;2022-07-01T11:59:35;5.28;;;2.00;;
5585;SDS011;2815;54.094;12.112;2022-07-01T12:02:05;7.18;;;2.15;;
5585;SDS011;2815;54.094;12.112;2022-07-01T12:04:34;5.93;;;1.98;;
5585;SDS011;2815;54.094;12.112;2022-07-01T12:07:03;5.85;;;2.17;;
5585;SDS011;2815;54.094;12.112;2022-07-01T12:09:32;4.30;;;1.83;;
5585;SDS011;2815;54.094;12.112;2022-07-01T12:12:00;6.00;;;2.10;;
5585;SDS011;2815;54.094;12.112;2022-07-01T12:14:29;7.85;;;1.60;;
5585;SDS011;2815;54.094;12.112;2022-07-01T12:16:58;4.28;;;2.10;;
5585;SDS011;2815;54.094;12.112;2022-07-01T12:19:28;4.07;;;1.58;;
5585;SDS011;2815;54.094;12.112;2022-07-01T12:22:34;3.63;;;1.45;;
5585;SDS011;2815;54.094;12.112;2022-07-01T12:25:13;4.57;;;1.83;;
5585;SDS011;2815;54.094;12.112;2022-07-01T12:27:42;5.68;;;1.30;;
5585;SDS011;2815;54.094;12.112;2022-07-01T12:30:11;4.93;;;1.52;;
5585;SDS011;2815;54.094;12.112;2022-07-01T12:32:40;7.30;;;1.33;;
5585;SDS011;2815;54.094;12.112;2022-07-01T12:35:09;5.15;;;1.73;;
5585;SDS011;2815;54.094;12.112;2022-07-01T12:37:51;3.60;;;1.80;;
5585;SDS011;2815;54.094;12.112;2022-07-01T12:40:21;2.88;;;1.50;;
5585;SDS011;2815;54.094;12.112;2022-07-01T12:42:50;4.40;;;1.65;;
5585;SDS011;2815;54.094;12.112;2022-07-01T12:45:22;3.22;;;1.77;;
5585;SDS011;2815;54.094;12.112;2022-07-01T12:50:20;4.35;;;1.80;;
5585;SDS011;2815;54.094;12.112;2022-07-01T12:52:56;6.15;;;2.30;;
5585;SDS011;2815;54.094;12.112;2022-07-01T12:55:28;5.00;;;1.98;;
5585;SDS011;2815;54.094;12.112;2022-07-01T12:57:58;2.67;;;1.47;;
5585;SDS011;2815;54.094;12.112;2022-07-01T13:00:27;5.35;;;1.77;;
5585;SDS011;2815;54.094;12.112;2022-07-01T13:02:57;4.07;;;1.90;;
5585;SDS011;2815;54.094;12.112;2022-07-01T13:05:25;4.75;;;1.90;;
5585;SDS011;2815;54.094;12.112;2022-07-01T13:07:53;4.63;;;1.80;;
5585;SDS011;2815;54.094;12.112;2022-07-01T13:10:21;6.25;;;1.75;;
5585;SDS011;2815;54.094;12.112;2022-07-01T13:12:51;1.85;;;1.63;;
5585;SDS011;2815;54.094;12.112;2022-07-01T13:15:19;4.78;;;1.60;;
5585;SDS011;2815;54.094;12.112;2022-07-01T13:17:48;6.13;;;1.33;;
5585;SDS011;2815;54.094;12.112;2022-07-01T13:20:16;3.65;;;1.40;;
5585;SDS011;2815;54.094;12.112;2022-07-01T13:22:44;6.32;;;1.63;;
5585;SDS011;2815;54.094;12.112;2022-07-01T13:25:12;2.95;;;1.45;;
5585;SDS011;2815;54.094;12.112;2022-07-01T13:27:41;7.18;;;1.60;;
5585;SDS011;2815;54.094;12.112;2022-07-01T13:30:11;3.60;;;2.00;;
5585;SDS011;2815;54.094;12.112;2022-07-01T13:32:40;3.30;;;1.80;;
5585;SDS011;2815;54.094;12.112;2022-07-01T13:35:09;4.07;;;1.63;;
5585;SDS011;2815;54.094;12.112;2022-07-01T13:37:37;3.70;;;1.50;;
5585;SDS011;2815;54.094;12.112;2022-07-01T13:40:06;3.92;;;1.20;;
5585;SDS011;2815;54.094;12.112;2022-07-01T13:42:35;4.25;;;1.60;;
5585;SDS011;2815;54.094;12.112;2022-07-01T13:45:03;3.65;;;1.80;;
5585;SDS011;2815;54.094;12.112;2022-07-01T13:47:33;4.57;;;1.95;;
5585;SDS011;2815;54.094;12.112;2022-07-01T13:50:01;5.75;;;1.80;;
5585;SDS011;2815;54.094;12.112;2022-07-01T13:52:29;6.07;;;1.70;;
5585;SDS011;2815;54.094;12.112;2022-07-01T13:54:57;3.22;;;1.85;;
5585;SDS011;2815;54.094;12.112;2022-07-01T13:57:25;5.75;;;1.70;;
5585;SDS011;2815;54.094;12.112;2022-07-01T13:59:54;3.70;;;1.70;;
5585;SDS011;2815;54.094;12.112;2022-07-01T14:02:23;3.83;;;1.40;;
5585;SDS011;2815;54.094;12.112;2022-07-01T14:04:52;6.00;;;1.60;;
5585;SDS011;2815;54.094;12.112;2022-07-01T14:07:20;5.55;;;2.00;;
5585;SDS011;2815;54.094;12.112;2022-07-01T14:09:49;4.30;;;1.10;;
5585;SDS011;2815;54.094;12.112;2022-07-01T14:12:17;5.53;;;1.30;;
5585;SDS011;2815;54.094;12.112;2022-07-01T14:14:53;1.73;;;0.82;;
5585;SDS011;2815;54.094;12.112;2022-07-01T14:17:21;2.05;;;1.00;;
5585;SDS011;2815;54.094;12.112;2022-07-01T14:19:49;2.58;;;0.80;;
5585;SDS011;2815;54.094;12.112;2022-07-01T14:22:19;5.47;;;0.90;;
5585;SDS011;2815;54.094;12.112;2022-07-01T14:24:46;3.95;;;1.30;;
5585;SDS011;2815;54.094;12.112;2022-07-01T14:27:14;4.63;;;1.23;;
5585;SDS011;2815;54.094;12.112;2022-07-01T14:29:42;3.33;;;1.33;;
5585;SDS011;2815;54.094;12.112;2022-07-01T14:32:10;7.13;;;1.25;;
5585;SDS011;2815;54.094;12.112;2022-07-01T14:34:38;3.40;;;0.98;;
5585;SDS011;2815;54.094;12.112;2022-07-01T14:37:07;6.53;;;1.33;;
5585;SDS011;2815;54.094;12.112;2022-07-01T14:39:36;2.90;;;1.15;;
5585;SDS011;2815;54.094;12.112;2022-07-01T14:42:05;2.83;;;0.98;;
5585;SDS011;2815;54.094;12.112;2022-07-01T14:44:33;6.43;;;1.55;;
5585;SDS011;2815;54.094;12.112;2022-07-01T14:47:01;3.45;;;1.08;;
5585;SDS011;2815;54.094;12.112;2022-07-01T14:49:30;3.63;;;1.42;;
5585;SDS011;2815;54.094;12.112;2022-07-01T14:52:02;2.90;;;1.40;;
5585;SDS011;2815;54.094;12.112;2022-07-01T14:54:31;3.50;;;1.42;;
5585;SDS011;2815;54.094;12.112;2022-07-01T14:57:00;2.42;;;1.17;;
5585;SDS011;2815;54.094;12.112;2022-07-01T14:59:28;3.13;;;1.00;;
5585;SDS011;2815;54.094;12.112;2022-07-01T15:01:56;4.93;;;1.77;;
5585;SDS011;2815;54.094;12.112;2022-07-01T15:04:28;3.25;;;1.20;;
5585;SDS011;2815;54.094;12.112;2022-07-01T15:06:56;4.35;;;1.30;;
5585;SDS011;2815;54.094;12.112;2022-07-01T15:09:24;1.88;;;0.80;;
5585;SDS011;2815;54.094;12.112;2022-07-01T15:11:52;3.15;;;0.98;;
5585;SDS011;2815;54.094;12.112;2022-07-01T15:14:22;1.88;;;1.02;;
5585;SDS011;2815;54.094;12.112;2022-07-01T15:16:50;2.90;;;1.13;;
5585;SDS011;2815;54.094;12.112;2022-07-01T15:19:18;5.85;;;1.40;;